createdAt,value
2024-01-30T00:01:12.615Z,12.30
2024-01-30T00:03:39.754Z,12.30
2024-01-30T00:06:07.265Z,12.30
2024-01-30T00:08:34.718Z,12.20
2024-01-30T00:11:02.136Z,12.30
2024-01-30T00:13:29.194Z,12.20
2024-01-30T00:15:56.388Z,12.20
2024-01-30T00:18:23.281Z,12.20
2024-01-30T00:20:50.428Z,12.20
2024-01-30T00:23:17.414Z,12.20
2024-01-30T00:25:44.475Z,12.10
2024-01-30T00:28:11.583Z,12.10
2024-01-30T00:30:38.599Z,12.10
2024-01-30T00:33:06.017Z,12.20
2024-01-30T00:35:32.996Z,12.10
2024-01-30T00:38:00.187Z,12.10
2024-01-30T00:40:28.074Z,12.10
2024-01-30T00:42:55.215Z,12.10
2024-01-30T00:45:22.235Z,12.10
2024-01-30T00:47:49.290Z,12.10
2024-01-30T00:50:16.844Z,12.10
2024-01-30T00:52:46.330Z,12.10
2024-01-30T00:55:14.270Z,12.10
2024-01-30T00:57:44.027Z,12.10
2024-01-30T01:00:13.970Z,12.10
2024-01-30T01:02:41.191Z,12.10
2024-01-30T01:05:08.626Z,12.10
2024-01-30T01:07:35.955Z,12.10
2024-01-30T01:10:03.832Z,12.10
2024-01-30T01:12:31.119Z,12.10
2024-01-30T01:14:58.099Z,12.10
2024-01-30T01:17:26.538Z,12.10
2024-01-30T01:19:53.676Z,12.10
2024-01-30T01:22:20.928Z,12.10
2024-01-30T01:24:48.166Z,12.10
2024-01-30T01:27:15.466Z,12.10
2024-01-30T01:29:42.556Z,12.00
2024-01-30T01:32:09.693Z,12.00
2024-01-30T01:34:36.655Z,12.00
2024-01-30T01:37:03.791Z,12.00
2024-01-30T01:39:30.734Z,12.00
2024-01-30T01:41:57.654Z,12.00
2024-01-30T01:44:24.699Z,12.00
2024-01-30T01:46:53.749Z,12.00
2024-01-30T01:49:22.310Z,12.00
2024-01-30T01:51:50.441Z,12.00
2024-01-30T01:54:17.967Z,11.90
2024-01-30T01:56:45.236Z,11.90
2024-01-30T01:59:12.301Z,11.90
2024-01-30T02:01:40.030Z,11.90
2024-01-30T02:04:08.008Z,11.90
2024-01-30T02:06:36.485Z,11.90
2024-01-30T02:09:03.483Z,11.90
2024-01-30T02:11:30.640Z,11.90
2024-01-30T02:13:57.639Z,11.90
2024-01-30T02:16:24.641Z,11.90
2024-01-30T02:18:51.767Z,11.80
2024-01-30T02:21:20.547Z,11.70
2024-01-30T02:23:51.986Z,11.70
2024-01-30T02:26:18.974Z,11.70
2024-01-30T02:28:45.921Z,11.70
2024-01-30T02:31:12.924Z,11.70
2024-01-30T02:33:39.992Z,11.70
2024-01-30T02:36:07.665Z,11.70
2024-01-30T02:38:34.677Z,11.70
2024-01-30T02:41:01.628Z,11.70
2024-01-30T02:43:28.726Z,11.80
2024-01-30T02:45:55.762Z,11.70
2024-01-30T02:48:22.930Z,11.70
2024-01-30T02:50:49.849Z,11.70
2024-01-30T02:53:16.842Z,11.70
2024-01-30T02:55:43.895Z,11.70
2024-01-30T02:58:10.971Z,11.70
2024-01-30T03:00:38.192Z,11.70
2024-01-30T03:03:05.503Z,11.70
2024-01-30T03:05:32.454Z,11.70
2024-01-30T03:07:59.517Z,11.70
2024-01-30T03:10:26.609Z,11.70
2024-01-30T03:12:53.623Z,11.60
2024-01-30T03:15:20.597Z,11.60
2024-01-30T03:17:47.610Z,11.60
2024-01-30T03:20:14.732Z,11.50
2024-01-30T03:22:41.698Z,11.50
2024-01-30T03:25:08.965Z,11.50
2024-01-30T03:27:35.894Z,11.50
2024-01-30T03:30:03.122Z,11.50
2024-01-30T03:32:30.444Z,11.50
2024-01-30T03:34:57.713Z,11.50
2024-01-30T03:37:25.305Z,11.50
2024-01-30T03:39:52.312Z,11.50
2024-01-30T03:42:19.387Z,11.50
2024-01-30T03:44:46.399Z,11.50
2024-01-30T03:47:13.390Z,11.40
2024-01-30T03:49:40.425Z,11.40
2024-01-30T03:52:07.439Z,11.40
2024-01-30T03:54:34.344Z,11.40
2024-01-30T03:57:01.323Z,11.40
2024-01-30T03:59:28.254Z,11.40
2024-01-30T04:01:55.761Z,11.40
2024-01-30T04:04:23.055Z,11.40
2024-01-30T04:06:50.239Z,11.40
2024-01-30T04:09:17.327Z,11.40
2024-01-30T04:11:44.385Z,11.40
2024-01-30T04:14:11.716Z,11.40
2024-01-30T04:16:38.646Z,11.30
2024-01-30T04:19:05.668Z,11.30
2024-01-30T04:21:32.887Z,11.30
2024-01-30T04:23:59.874Z,11.30
2024-01-30T04:26:26.863Z,11.30
2024-01-30T04:28:53.869Z,11.30
2024-01-30T04:31:21.004Z,11.30
2024-01-30T04:33:48.077Z,11.30
2024-01-30T04:36:15.052Z,11.30
2024-01-30T04:38:42.039Z,11.20
2024-01-30T04:41:08.969Z,11.20
2024-01-30T04:43:36.174Z,11.20
2024-01-30T04:46:03.261Z,11.20
2024-01-30T04:48:30.733Z,11.20
2024-01-30T04:50:57.835Z,11.10
2024-01-30T04:53:24.775Z,11.10
2024-01-30T04:55:51.877Z,11.10
2024-01-30T04:58:18.836Z,11.10
2024-01-30T05:00:47.494Z,11.10
2024-01-30T05:03:14.647Z,11.10
2024-01-30T05:05:41.777Z,11.10
2024-01-30T05:08:08.796Z,11.10
2024-01-30T05:10:35.788Z,11.10
2024-01-30T05:13:02.948Z,11.10
2024-01-30T05:15:30.001Z,11.10
2024-01-30T05:17:57.067Z,11.10
2024-01-30T05:20:24.103Z,11.10
2024-01-30T05:22:51.209Z,11.00
2024-01-30T05:25:18.245Z,11.00
2024-01-30T05:27:45.309Z,11.10
2024-01-30T05:30:12.781Z,11.00
2024-01-30T05:32:39.840Z,11.00
2024-01-30T05:35:08.988Z,11.10
2024-01-30T05:37:35.932Z,11.00
2024-01-30T05:40:02.925Z,11.00
2024-01-30T05:42:29.912Z,11.00
2024-01-30T05:44:56.866Z,11.00
2024-01-30T05:47:23.949Z,11.00
2024-01-30T05:49:51.128Z,11.00
2024-01-30T05:52:19.920Z,11.00
2024-01-30T05:54:47.098Z,11.00
2024-01-30T05:57:14.109Z,11.00
2024-01-30T05:59:42.276Z,10.90
2024-01-30T06:02:09.642Z,10.90
2024-01-30T06:04:37.187Z,10.90
2024-01-30T06:07:04.469Z,10.90
2024-01-30T06:09:31.555Z,10.90
2024-01-30T06:11:58.893Z,10.90
2024-01-30T06:14:25.939Z,10.90
2024-01-30T06:16:52.941Z,10.90
2024-01-30T06:19:19.942Z,10.90
2024-01-30T06:21:47.100Z,10.80
2024-01-30T06:24:14.169Z,10.80
2024-01-30T06:26:41.226Z,10.80
2024-01-30T06:29:08.877Z,10.80
2024-01-30T06:31:42.763Z,10.80
2024-01-30T06:34:11.211Z,10.80
2024-01-30T06:36:38.381Z,10.80
2024-01-30T06:39:05.636Z,10.80
2024-01-30T06:41:32.693Z,10.80
2024-01-30T06:43:59.691Z,10.80
2024-01-30T06:46:26.821Z,10.80
2024-01-30T06:48:53.886Z,10.80
2024-01-30T06:51:20.888Z,10.80
2024-01-30T06:53:47.827Z,10.70
2024-01-30T06:56:14.796Z,10.70
2024-01-30T06:58:41.961Z,10.70
2024-01-30T07:01:09.151Z,10.70
2024-01-30T07:03:36.191Z,10.70
2024-01-30T07:06:03.352Z,10.70
2024-01-30T07:08:30.372Z,10.70
2024-01-30T07:11:00.917Z,10.70
2024-01-30T07:13:29.996Z,10.70
2024-01-30T07:15:57.121Z,10.70
2024-01-30T07:18:24.108Z,10.70
2024-01-30T07:20:51.258Z,10.60
2024-01-30T07:23:19.077Z,10.70
2024-01-30T07:25:48.385Z,10.60
2024-01-30T07:28:19.137Z,10.60
2024-01-30T07:30:46.491Z,10.60
2024-01-30T07:33:14.073Z,10.60
2024-01-30T07:35:41.336Z,10.60
2024-01-30T07:38:08.438Z,10.60
2024-01-30T07:40:35.552Z,10.50
2024-01-30T07:43:04.599Z,10.50
2024-01-30T07:45:34.507Z,10.50
2024-01-30T07:48:02.169Z,10.50
2024-01-30T07:50:29.236Z,10.50
2024-01-30T07:53:01.169Z,10.40
2024-01-30T07:55:33.161Z,10.40
2024-01-30T07:58:01.271Z,10.40
2024-01-30T08:00:30.460Z,10.40
2024-01-30T08:02:57.793Z,10.40
2024-01-30T08:05:25.572Z,10.40
2024-01-30T08:07:52.947Z,10.30
2024-01-30T08:10:20.180Z,10.40
2024-01-30T08:12:47.659Z,10.40
2024-01-30T08:15:14.894Z,10.30
2024-01-30T08:17:42.144Z,10.30
2024-01-30T08:20:12.257Z,10.30
2024-01-30T08:22:42.698Z,10.30
2024-01-30T08:25:11.130Z,10.30
2024-01-30T08:27:39.731Z,10.30
2024-01-30T08:30:08.496Z,10.30
2024-01-30T08:32:35.718Z,10.30
2024-01-30T08:35:05.933Z,10.30
2024-01-30T08:37:33.064Z,10.30
2024-01-30T08:40:00.478Z,10.30
2024-01-30T08:42:28.042Z,10.30
2024-01-30T08:44:55.515Z,10.40
2024-01-30T08:47:22.594Z,10.40
2024-01-30T08:49:49.749Z,10.40
2024-01-30T08:52:16.718Z,10.40
2024-01-30T08:54:43.710Z,10.40
2024-01-30T08:57:10.711Z,10.40
2024-01-30T08:59:37.656Z,10.50
2024-01-30T09:02:12.095Z,10.50
2024-01-30T09:04:40.833Z,10.50
2024-01-30T09:07:11.226Z,10.50
2024-01-30T09:09:42.534Z,10.60
2024-01-30T09:12:12.700Z,10.60
2024-01-30T09:14:41.620Z,10.60
2024-01-30T09:17:09.475Z,10.60
2024-01-30T09:19:37.027Z,10.70
2024-01-30T09:22:04.808Z,10.70
2024-01-30T09:24:31.938Z,10.80
2024-01-30T09:26:59.069Z,10.80
2024-01-30T09:29:26.623Z,10.80
2024-01-30T09:31:53.724Z,10.80
2024-01-30T09:34:21.033Z,10.90
2024-01-30T09:36:48.177Z,10.90
2024-01-30T09:39:16.056Z,11.00
2024-01-30T09:41:57.080Z,11.00
2024-01-30T09:44:26.043Z,11.10
2024-01-30T09:46:53.100Z,11.10
2024-01-30T09:49:21.623Z,11.10
2024-01-30T09:51:50.015Z,11.20
2024-01-30T09:54:17.925Z,11.20
2024-01-30T09:56:48.666Z,11.30
2024-01-30T09:59:16.358Z,11.30
2024-01-30T10:01:44.727Z,11.30
2024-01-30T10:04:11.911Z,11.40
2024-01-30T10:06:39.601Z,11.50
2024-01-30T10:09:06.556Z,11.50
2024-01-30T10:11:33.905Z,11.50
2024-01-30T10:14:01.779Z,11.50
2024-01-30T10:16:29.185Z,11.60
2024-01-30T10:18:56.849Z,11.70
2024-01-30T10:21:24.299Z,11.70
2024-01-30T10:23:51.638Z,11.70
2024-01-30T10:26:18.925Z,11.70
2024-01-30T10:28:45.892Z,11.80
2024-01-30T10:31:17.273Z,11.80
2024-01-30T10:33:47.246Z,11.80
2024-01-30T10:36:19.049Z,11.90
2024-01-30T10:38:51.316Z,11.90
2024-01-30T10:41:25.712Z,12.00
2024-01-30T10:44:04.644Z,12.00
2024-01-30T10:46:33.328Z,12.10
2024-01-30T10:49:01.690Z,12.10
2024-01-30T10:51:29.552Z,12.00
2024-01-30T10:53:57.896Z,12.10
2024-01-30T10:56:26.631Z,12.10
2024-01-30T10:58:55.131Z,12.10
2024-01-30T11:01:26.329Z,12.20
2024-01-30T11:03:55.264Z,12.20
2024-01-30T11:06:27.115Z,12.20
2024-01-30T11:09:11.257Z,12.20
2024-01-30T11:12:01.219Z,12.10
2024-01-30T11:14:30.681Z,12.20
2024-01-30T11:17:01.337Z,12.20
2024-01-30T11:19:31.928Z,12.20
2024-01-30T11:21:59.049Z,12.20
2024-01-30T11:24:27.562Z,12.30
2024-01-30T11:26:59.460Z,12.30
2024-01-30T11:29:28.199Z,12.30
2024-01-30T11:31:56.965Z,12.30
2024-01-30T11:34:25.188Z,12.40
2024-01-30T11:37:00.905Z,12.40
2024-01-30T11:39:28.801Z,12.40
2024-01-30T11:41:56.169Z,12.50
2024-01-30T11:44:25.922Z,12.50
2024-01-30T11:46:53.487Z,12.50
2024-01-30T11:49:21.038Z,12.40
2024-01-30T11:51:51.341Z,12.30
2024-01-30T11:54:19.078Z,12.30
2024-01-30T11:56:46.195Z,12.30
2024-01-30T11:59:13.219Z,12.40
2024-01-30T12:01:40.509Z,12.40
2024-01-30T12:04:11.151Z,12.40
2024-01-30T12:06:40.211Z,12.40
2024-01-30T12:09:10.362Z,12.40
2024-01-30T12:11:51.081Z,12.30
2024-01-30T12:14:18.722Z,12.40
2024-01-30T12:16:49.018Z,12.40
2024-01-30T12:19:23.840Z,12.30
2024-01-30T12:22:01.542Z,12.30
2024-01-30T12:24:31.641Z,12.40
2024-01-30T12:27:00.101Z,12.40
2024-01-30T12:29:30.710Z,12.40
2024-01-30T12:32:01.460Z,12.50
2024-01-30T12:34:28.433Z,12.40
2024-01-30T12:36:55.874Z,12.40
2024-01-30T12:39:23.282Z,12.50
2024-01-30T12:41:50.276Z,12.50
2024-01-30T12:44:17.329Z,12.50
2024-01-30T12:46:45.931Z,12.50
2024-01-30T12:49:13.786Z,12.50
2024-01-30T12:51:41.204Z,12.50
2024-01-30T12:54:08.351Z,12.50
2024-01-30T12:56:35.297Z,12.50
2024-01-30T12:59:02.299Z,12.50
2024-01-30T13:01:29.840Z,12.50
2024-01-30T13:03:58.694Z,12.70
2024-01-30T13:06:25.814Z,12.70
2024-01-30T13:08:52.836Z,12.80
2024-01-30T13:11:21.700Z,12.80
2024-01-30T13:13:49.706Z,12.80
2024-01-30T13:16:16.968Z,12.80
2024-01-30T13:18:45.290Z,12.90
2024-01-30T13:21:12.392Z,12.90
2024-01-30T13:23:39.511Z,13.00
2024-01-30T13:26:07.740Z,13.00
2024-01-30T13:28:34.884Z,12.90
2024-01-30T13:31:01.888Z,12.90
2024-01-30T13:33:29.270Z,12.90
2024-01-30T13:35:56.448Z,12.90
2024-01-30T13:38:23.538Z,12.80
2024-01-30T13:40:50.784Z,12.80
2024-01-30T13:43:19.017Z,12.80
2024-01-30T13:45:47.351Z,12.90
2024-01-30T13:48:14.435Z,12.90
2024-01-30T13:50:41.484Z,13.00
2024-01-30T13:53:09.268Z,12.90
2024-01-30T13:55:36.533Z,12.90
2024-01-30T13:58:03.635Z,12.90
2024-01-30T14:00:31.080Z,12.90
2024-01-30T14:02:59.616Z,12.90
2024-01-30T14:05:27.866Z,13.00
2024-01-30T14:07:55.473Z,13.00
2024-01-30T14:10:22.570Z,13.10
2024-01-30T14:12:49.653Z,13.10
2024-01-30T14:15:24.140Z,13.20
2024-01-30T14:17:56.402Z,13.10
2024-01-30T14:20:23.927Z,13.10
2024-01-30T14:22:50.999Z,13.10
2024-01-30T14:25:18.237Z,13.10
2024-01-30T14:27:45.224Z,13.10
2024-01-30T14:30:13.076Z,13.10
2024-01-30T14:32:41.862Z,13.30
2024-01-30T14:35:10.501Z,13.20
2024-01-30T14:37:38.628Z,13.20
2024-01-30T14:40:08.600Z,13.20
2024-01-30T14:42:37.157Z,13.20
2024-01-30T14:45:05.413Z,13.20
2024-01-30T14:47:32.633Z,13.30
2024-01-30T14:49:59.664Z,13.30
2024-01-30T14:52:27.053Z,13.40
2024-01-30T14:54:54.256Z,13.40
2024-01-30T14:57:21.370Z,13.40
2024-01-30T14:59:49.734Z,13.40
2024-01-30T15:02:16.750Z,13.50
2024-01-30T15:04:43.965Z,13.50
2024-01-30T15:07:12.309Z,13.50
2024-01-30T15:09:39.495Z,13.50
2024-01-30T15:12:06.626Z,13.50
2024-01-30T15:14:33.597Z,13.50
2024-01-30T15:17:00.919Z,13.60
2024-01-30T15:19:28.503Z,13.50
2024-01-30T15:21:55.548Z,13.50
2024-01-30T15:24:25.543Z,13.50
2024-01-30T15:26:53.438Z,13.60
2024-01-30T15:29:22.618Z,13.50
2024-01-30T15:31:49.658Z,13.50
2024-01-30T15:34:16.841Z,13.50
2024-01-30T15:36:44.036Z,13.50
2024-01-30T15:39:12.526Z,13.50
2024-01-30T15:41:39.623Z,13.50
2024-01-30T15:44:06.600Z,13.50
2024-01-30T15:46:34.031Z,13.50
2024-01-30T15:49:02.235Z,13.50
2024-01-30T15:51:30.085Z,13.60
2024-01-30T15:53:57.199Z,13.50
2024-01-30T15:56:24.664Z,13.60
2024-01-30T15:58:53.267Z,13.60
2024-01-30T16:01:20.416Z,13.60
2024-01-30T16:03:47.557Z,13.60
2024-01-30T16:06:15.914Z,13.60
2024-01-30T16:08:43.460Z,13.60
2024-01-30T16:11:10.794Z,13.60
2024-01-30T16:13:41.587Z,13.70
2024-01-30T16:16:09.602Z,13.70
2024-01-30T16:18:36.751Z,13.70
2024-01-30T16:21:03.810Z,13.70
2024-01-30T16:23:30.763Z,13.70
2024-01-30T16:25:59.117Z,13.70
2024-01-30T16:28:29.879Z,13.70
2024-01-30T16:30:59.123Z,13.70
2024-01-30T16:33:26.387Z,13.70
2024-01-30T16:35:54.341Z,13.70
2024-01-30T16:38:21.358Z,13.80
2024-01-30T16:40:48.328Z,13.80
2024-01-30T16:43:15.444Z,13.90
2024-01-30T16:45:42.455Z,13.90
2024-01-30T16:48:11.505Z,13.90
2024-01-30T16:50:38.870Z,13.90
2024-01-30T16:53:05.916Z,13.90
2024-01-30T16:55:33.038Z,13.90
2024-01-30T16:58:00.044Z,13.90
2024-01-30T17:00:27.006Z,13.90
2024-01-30T17:02:54.026Z,13.90
2024-01-30T17:05:26.803Z,14.00
2024-01-30T17:07:56.027Z,14.00
2024-01-30T17:10:23.211Z,14.00
2024-01-30T17:12:50.644Z,14.00
2024-01-30T17:15:17.943Z,14.00
2024-01-30T17:17:44.871Z,14.00
2024-01-30T17:20:13.379Z,14.00
2024-01-30T17:22:43.076Z,14.00
2024-01-30T17:25:13.061Z,14.00
2024-01-30T17:27:40.422Z,14.00
2024-01-30T17:30:08.136Z,14.00
2024-01-30T17:32:35.171Z,14.00
2024-01-30T17:35:03.048Z,14.00
2024-01-30T17:37:30.355Z,14.00
2024-01-30T17:39:58.158Z,14.00
2024-01-30T17:42:25.482Z,14.00
2024-01-30T17:44:52.411Z,14.00
2024-01-30T17:47:19.293Z,14.00
2024-01-30T17:49:46.698Z,14.00
2024-01-30T17:52:13.842Z,14.00
2024-01-30T17:54:40.847Z,14.00
2024-01-30T17:57:07.849Z,14.00
2024-01-30T17:59:34.917Z,14.00
2024-01-30T18:02:02.010Z,14.00
2024-01-30T18:04:29.270Z,14.00
2024-01-30T18:06:57.402Z,13.90
2024-01-30T18:09:26.688Z,13.90
2024-01-30T18:11:53.830Z,13.90
2024-01-30T18:14:20.967Z,13.90
2024-01-30T18:16:47.859Z,13.90
2024-01-30T18:19:15.424Z,13.90
2024-01-30T18:21:43.004Z,13.90
2024-01-30T18:24:09.985Z,13.90
2024-01-30T18:26:37.570Z,13.90
2024-01-30T18:29:05.821Z,13.90
2024-01-30T18:31:33.148Z,13.90
2024-01-30T18:34:00.389Z,13.90
2024-01-30T18:36:27.428Z,13.90
2024-01-30T18:38:57.276Z,13.90
2024-01-30T18:41:24.316Z,13.90
2024-01-30T18:43:51.386Z,13.80
2024-01-30T18:46:23.620Z,13.80
2024-01-30T18:48:51.243Z,13.80
2024-01-30T18:51:18.487Z,13.70
2024-01-30T18:53:45.808Z,13.70
2024-01-30T18:56:14.156Z,13.70
2024-01-30T18:58:41.165Z,13.70
2024-01-30T19:01:09.858Z,13.70
2024-01-30T19:03:37.191Z,13.70
2024-01-30T19:06:04.829Z,13.60
2024-01-30T19:08:32.018Z,13.70
2024-01-30T19:10:59.196Z,13.60
2024-01-30T19:13:26.220Z,13.60
2024-01-30T19:15:53.607Z,13.60
2024-01-30T19:18:21.112Z,13.60
2024-01-30T19:20:49.395Z,13.60
2024-01-30T19:23:17.911Z,13.60
2024-01-30T19:25:47.624Z,13.50
2024-01-30T19:28:14.962Z,13.50
2024-01-30T19:30:42.310Z,13.50
2024-01-30T19:33:09.488Z,13.50
2024-01-30T19:35:37.065Z,13.50
2024-01-30T19:38:04.219Z,13.50
2024-01-30T19:40:31.540Z,13.50
2024-01-30T19:42:58.628Z,13.50
2024-01-30T19:45:25.615Z,13.40
2024-01-30T19:47:54.174Z,13.40
2024-01-30T19:50:21.235Z,13.40
2024-01-30T19:52:49.435Z,13.40
2024-01-30T19:55:16.877Z,13.30
2024-01-30T19:57:44.405Z,13.30
2024-01-30T20:00:14.411Z,13.30
2024-01-30T20:02:42.219Z,13.30
2024-01-30T20:05:10.600Z,13.30
2024-01-30T20:07:37.813Z,13.30
2024-01-30T20:10:05.310Z,13.30
2024-01-30T20:12:32.391Z,13.30
2024-01-30T20:14:59.480Z,13.20
2024-01-30T20:17:26.686Z,13.30
2024-01-30T20:19:56.724Z,13.20
2024-01-30T20:22:23.866Z,13.20
2024-01-30T20:24:53.693Z,13.20
2024-01-30T20:27:23.206Z,13.20
2024-01-30T20:29:50.301Z,13.10
2024-01-30T20:32:17.268Z,13.10
2024-01-30T20:34:44.482Z,13.10
2024-01-30T20:37:11.604Z,13.10
2024-01-30T20:39:40.335Z,13.10
2024-01-30T20:42:07.635Z,13.10
2024-01-30T20:44:34.657Z,13.10
2024-01-30T20:47:01.612Z,13.10
2024-01-30T20:49:28.651Z,13.10
2024-01-30T20:51:55.686Z,13.10
2024-01-30T20:54:22.654Z,13.10
2024-01-30T20:56:49.602Z,13.10
2024-01-30T20:59:16.565Z,13.00
2024-01-30T21:01:43.593Z,13.00
2024-01-30T21:04:10.830Z,13.00
2024-01-30T21:06:37.870Z,13.00
2024-01-30T21:09:04.800Z,13.00
2024-01-30T21:11:31.816Z,13.00
2024-01-30T21:13:58.912Z,12.90
2024-01-30T21:16:27.494Z,12.90
2024-01-30T21:18:54.665Z,12.90
2024-01-30T21:21:21.781Z,12.90
2024-01-30T21:23:49.920Z,12.80
2024-01-30T21:26:17.315Z,12.80
2024-01-30T21:28:44.723Z,12.80
2024-01-30T21:31:15.422Z,12.80
2024-01-30T21:33:44.809Z,12.80
2024-01-30T21:36:11.916Z,12.80
2024-01-30T21:38:39.078Z,12.80
2024-01-30T21:41:07.021Z,12.80
2024-01-30T21:43:34.261Z,12.80
2024-01-30T21:46:02.601Z,12.80
2024-01-30T21:48:29.561Z,12.80
2024-01-30T21:50:56.603Z,12.80
2024-01-30T21:53:23.655Z,12.80
2024-01-30T21:55:50.660Z,12.70
2024-01-30T21:58:17.654Z,12.70
2024-01-30T22:00:44.787Z,12.70
2024-01-30T22:03:11.817Z,12.70
2024-01-30T22:05:39.753Z,12.60
2024-01-30T22:08:07.062Z,12.60
2024-01-30T22:10:34.258Z,12.60
2024-01-30T22:13:01.345Z,12.50
2024-01-30T22:15:30.343Z,12.50
2024-01-30T22:17:57.427Z,12.50
2024-01-30T22:20:24.643Z,12.50
2024-01-30T22:22:51.580Z,12.50
2024-01-30T22:25:21.260Z,12.50
2024-01-30T22:27:48.978Z,12.50
2024-01-30T22:30:16.019Z,12.50
2024-01-30T22:32:43.328Z,12.50
2024-01-30T22:35:12.876Z,12.50
2024-01-30T22:37:40.334Z,12.50
2024-01-30T22:40:08.194Z,12.50
2024-01-30T22:42:35.245Z,12.50
2024-01-30T22:45:02.199Z,12.50
2024-01-30T22:47:29.620Z,12.50
2024-01-30T22:49:56.730Z,12.50
2024-01-30T22:52:23.908Z,12.40
2024-01-30T22:54:50.900Z,12.40
2024-01-30T22:57:18.338Z,12.40
2024-01-30T22:59:45.343Z,12.30
2024-01-30T23:02:13.118Z,12.30
2024-01-30T23:04:40.414Z,12.30
2024-01-30T23:07:07.612Z,12.30
2024-01-30T23:09:34.824Z,12.30
2024-01-30T23:12:01.839Z,12.20
2024-01-30T23:14:28.933Z,12.20
2024-01-30T23:16:55.997Z,12.20
2024-01-30T23:19:23.042Z,12.20
2024-01-30T23:21:52.053Z,12.20
2024-01-30T23:24:19.177Z,12.20
2024-01-30T23:26:47.804Z,12.10
2024-01-30T23:29:15.241Z,12.10
2024-01-30T23:31:44.795Z,12.10
2024-01-30T23:34:13.508Z,12.10
2024-01-30T23:36:43.622Z,12.10
2024-01-30T23:39:12.545Z,12.00
2024-01-30T23:41:39.849Z,12.00
2024-01-30T23:44:07.138Z,12.00
2024-01-30T23:46:34.500Z,12.00
2024-01-30T23:49:02.294Z,12.00
2024-01-30T23:51:29.481Z,12.00
2024-01-30T23:53:56.916Z,11.90
2024-01-30T23:56:24.011Z,11.90
2024-01-30T23:58:52.340Z,11.90
